Time;durP1;ratioP1;P1;durP2;ratioP2;P2;SDS_P1;SDS_P2;PMS_P1;PMS_P2;Temp;Humidity;BMP_temperature;BMP_pressure;BME280_temperature;BME280_humidity;BME280_pressure;Samples;Min_cycle;Max_cycle;Signal;HPM_P1;HPM_P2
2023/12/21 00:01:04;;;;;;;3.50;2.15;;;7.30;99.90;;;;;;6180167;23;20521;-69
2023/12/21 00:03:50;;;;;;;3.92;2.15;;;7.30;99.90;;;;;;6157623;23;20320;-68
2023/12/21 00:06:35;;;;;;;4.00;2.40;;;7.30;99.90;;;;;;6160367;23;20451;-68
2023/12/21 00:09:21;;;;;;;3.45;2.28;;;7.20;99.90;;;;;;6182989;23;20020;-67
2023/12/21 00:12:07;;;;;;;3.40;2.00;;;7.20;99.90;;;;;;6161952;23;20048;-67
2023/12/21 00:14:53;;;;;;;4.03;2.80;;;7.30;99.90;;;;;;6161716;23;20033;-67
2023/12/21 00:17:39;;;;;;;2.90;2.35;;;7.30;99.90;;;;;;6182915;23;20463;-77
2023/12/21 00:20:25;;;;;;;5.38;2.97;;;7.30;99.90;;;;;;6182454;23;20009;-78
2023/12/21 00:23:11;;;;;;;7.80;3.40;;;7.40;99.90;;;;;;6161702;23;20013;-75
2023/12/21 00:25:57;;;;;;;5.18;3.08;;;7.40;99.90;;;;;;6182612;23;20005;-76
2023/12/21 00:28:43;;;;;;;4.93;3.25;;;7.40;99.90;;;;;;6183412;23;20051;-77
2023/12/21 00:31:29;;;;;;;8.52;4.43;;;7.40;99.90;;;;;;6181437;23;20009;-77
2023/12/21 00:34:15;;;;;;;7.78;3.72;;;7.50;99.90;;;;;;6181984;23;20020;-77
2023/12/21 00:37:01;;;;;;;4.32;3.28;;;7.50;99.90;;;;;;6182395;23;20095;-76
2023/12/21 00:39:47;;;;;;;4.82;3.05;;;7.60;99.90;;;;;;6182125;23;20442;-75
2023/12/21 00:42:33;;;;;;;4.60;3.00;;;7.60;99.90;;;;;;6183492;23;20009;-76
2023/12/21 00:45:19;;;;;;;3.67;2.67;;;7.70;99.90;;;;;;6162555;23;20087;-76
2023/12/21 00:48:05;;;;;;;6.10;3.28;;;7.70;99.90;;;;;;6184593;23;20009;-76
2023/12/21 00:50:51;;;;;;;5.47;3.13;;;7.80;99.90;;;;;;6182992;23;20013;-78
2023/12/21 00:53:37;;;;;;;5.88;3.42;;;7.80;99.90;;;;;;6160352;23;20020;-77
2023/12/21 00:56:23;;;;;;;4.05;2.55;;;7.80;99.90;;;;;;6182870;23;20021;-77
2023/12/21 00:59:09;;;;;;;5.18;3.00;;;7.90;99.90;;;;;;6182935;23;20041;-78
2023/12/21 01:01:55;;;;;;;3.47;2.55;;;7.90;99.90;;;;;;6183133;23;20017;-78
2023/12/21 01:04:41;;;;;;;3.80;2.60;;;8.00;99.90;;;;;;6182258;23;20040;-77
2023/12/21 01:07:27;;;;;;;6.68;2.67;;;8.10;99.90;;;;;;6183337;23;20067;-78
2023/12/21 01:10:13;;;;;;;3.40;2.15;;;8.10;99.90;;;;;;6182873;23;20312;-77
2023/12/21 01:12:59;;;;;;;4.28;2.38;;;8.10;99.90;;;;;;6181607;23;20529;-78
2023/12/21 01:15:45;;;;;;;3.70;2.42;;;8.10;99.90;;;;;;6184388;23;20378;-79
2023/12/21 01:18:31;;;;;;;3.65;2.17;;;8.20;99.90;;;;;;6182982;23;20012;-79
2023/12/21 01:21:16;;;;;;;3.60;2.17;;;8.10;99.90;;;;;;6182808;23;20013;-78
2023/12/21 01:24:03;;;;;;;2.42;1.83;;;8.20;99.90;;;;;;6183011;23;20092;-78
2023/12/21 01:26:49;;;;;;;2.70;1.80;;;8.30;99.90;;;;;;6182018;23;20020;-78
2023/12/21 01:29:35;;;;;;;2.67;1.80;;;8.30;99.90;;;;;;6183557;23;20005;-79
2023/12/21 01:32:21;;;;;;;2.60;1.83;;;8.40;99.90;;;;;;6184660;23;20043;-78
2023/12/21 01:35:07;;;;;;;6.78;2.05;;;8.40;99.90;;;;;;6210206;23;20013;-78
2023/12/21 01:37:53;;;;;;;2.20;1.48;;;8.40;99.90;;;;;;6178009;23;20028;-76
2023/12/21 01:40:39;;;;;;;1.77;1.48;;;8.50;99.90;;;;;;6209883;23;20013;-76
2023/12/21 01:43:25;;;;;;;1.83;1.20;;;8.60;99.90;;;;;;6208628;23;20013;-77
2023/12/21 01:46:11;;;;;;;2.22;1.58;;;8.60;99.90;;;;;;6162532;23;20005;-76
2023/12/21 01:48:58;;;;;;;3.03;1.50;;;8.60;99.90;;;;;;6181782;23;20085;-78
2023/12/21 01:51:44;;;;;;;3.17;2.10;;;8.60;99.90;;;;;;6182567;23;20005;-78
2023/12/21 01:54:30;;;;;;;1.98;1.20;;;8.70;99.90;;;;;;6158887;23;20017;-78
2023/12/21 01:57:16;;;;;;;4.38;1.30;;;8.70;99.90;;;;;;6182075;23;20020;-68
2023/12/21 02:00:02;;;;;;;2.17;1.50;;;8.70;99.90;;;;;;6179961;23;20079;-67
2023/12/21 02:02:50;;;;;;;2.38;1.27;;;8.70;99.90;;;;;;6180339;23;20017;-66
2023/12/21 02:05:35;;;;;;;3.55;1.20;;;8.80;99.90;;;;;;6180883;23;20072;-67
2023/12/21 02:08:21;;;;;;;1.60;1.10;;;8.80;99.90;;;;;;6159479;23;20072;-67
2023/12/21 02:11:10;;;;;;;3.25;1.00;;;8.90;99.90;;;;;;6180215;23;20084;-67
2023/12/21 02:13:56;;;;;;;1.67;1.23;;;8.90;99.90;;;;;;6181750;23;20039;-67
2023/12/21 02:16:51;;;;;;;1.52;1.20;;;8.90;99.90;;;;;;6181605;23;20170;-67
2023/12/21 02:19:38;;;;;;;1.23;1.10;;;8.90;99.90;;;;;;6181720;23;20068;-67
2023/12/21 02:22:26;;;;;;;1.27;1.00;;;9.00;99.90;;;;;;6179299;23;20394;-67
2023/12/21 02:25:13;;;;;;;1.17;0.98;;;9.00;99.90;;;;;;6180228;23;20017;-67
2023/12/21 02:27:59;;;;;;;3.05;1.10;;;9.00;99.90;;;;;;6180967;23;20009;-67
2023/12/21 02:30:47;;;;;;;1.77;1.05;;;9.00;99.90;;;;;;6179171;23;20020;-67
2023/12/21 02:33:33;;;;;;;1.90;1.30;;;9.10;99.90;;;;;;6179680;23;20005;-67
2023/12/21 02:36:19;;;;;;;3.63;1.10;;;9.00;99.90;;;;;;6181810;23;20470;-67
2023/12/21 02:39:05;;;;;;;1.38;1.20;;;9.00;99.90;;;;;;6182771;23;20005;-67
2023/12/21 02:41:53;;;;;;;1.73;1.10;;;9.10;99.90;;;;;;6181504;23;20355;-67
2023/12/21 02:44:39;;;;;;;1.88;1.00;;;9.10;99.90;;;;;;6181398;23;20009;-67
2023/12/21 02:47:25;;;;;;;1.48;1.17;;;9.10;99.90;;;;;;6182727;23;20009;-67
2023/12/21 02:50:10;;;;;;;1.95;1.10;;;9.20;99.90;;;;;;6182206;23;20016;-67
2023/12/21 02:52:56;;;;;;;0.75;0.75;;;9.20;99.90;;;;;;6181578;23;20043;-67
2023/12/21 02:55:42;;;;;;;1.23;0.80;;;9.20;99.90;;;;;;6181805;23;20022;-67
2023/12/21 02:58:28;;;;;;;1.00;0.77;;;9.20;99.90;;;;;;6179238;23;20332;-66
2023/12/21 03:01:14;;;;;;;1.33;0.90;;;9.30;99.90;;;;;;6179531;23;20005;-67
2023/12/21 03:04:00;;;;;;;0.88;0.80;;;9.30;99.90;;;;;;6181234;23;20028;-67
2023/12/21 03:06:46;;;;;;;1.02;0.95;;;9.30;99.90;;;;;;6179995;23;20067;-68
2023/12/21 03:09:32;;;;;;;1.48;0.82;;;9.30;99.90;;;;;;6181691;23;20024;-67
2023/12/21 03:12:18;;;;;;;0.68;0.63;;;9.30;99.90;;;;;;6161589;23;20009;-67
2023/12/21 03:15:04;;;;;;;1.42;1.10;;;9.30;99.90;;;;;;6180368;23;20009;-67
2023/12/21 03:17:52;;;;;;;0.73;0.73;;;9.40;99.90;;;;;;6181773;23;20328;-67
2023/12/21 03:20:38;;;;;;;0.90;0.80;;;9.30;99.90;;;;;;6179873;23;20017;-67
2023/12/21 03:23:24;;;;;;;0.80;0.80;;;9.40;99.90;;;;;;6157907;23;20009;-67
2023/12/21 03:26:10;;;;;;;0.75;0.60;;;9.40;99.90;;;;;;6180015;23;20037;-67
2023/12/21 03:28:56;;;;;;;1.55;0.80;;;9.40;99.90;;;;;;6178710;23;20012;-67
2023/12/21 03:31:42;;;;;;;1.08;0.80;;;9.40;99.90;;;;;;6181213;23;20032;-66
2023/12/21 03:34:28;;;;;;;1.83;0.90;;;9.50;99.90;;;;;;6181566;23;20064;-67
2023/12/21 03:37:14;;;;;;;0.90;0.75;;;9.40;99.90;;;;;;6180913;23;20411;-67
2023/12/21 03:40:00;;;;;;;1.38;1.00;;;9.50;99.90;;;;;;6178519;23;20017;-67
2023/12/21 03:42:51;;;;;;;2.63;1.05;;;9.50;99.90;;;;;;6180478;23;20391;-67
2023/12/21 03:45:40;;;;;;;2.03;1.38;;;9.50;99.90;;;;;;6182597;23;20572;-67
2023/12/21 03:48:26;;;;;;;2.80;1.10;;;9.50;99.90;;;;;;6182875;23;20017;-67
2023/12/21 03:51:12;;;;;;;1.52;1.15;;;9.50;99.90;;;;;;6183299;23;20368;-77
2023/12/21 03:53:57;;;;;;;2.83;1.10;;;9.60;99.90;;;;;;6161453;23;20431;-75
2023/12/21 03:56:43;;;;;;;1.35;1.00;;;9.60;99.90;;;;;;6182253;23;20048;-76
2023/12/21 03:59:29;;;;;;;1.40;1.05;;;9.60;99.90;;;;;;6182878;23;20060;-77
2023/12/21 04:02:15;;;;;;;2.03;1.20;;;9.60;99.90;;;;;;6180852;23;20048;-77
2023/12/21 04:05:01;;;;;;;1.40;1.05;;;9.60;99.90;;;;;;6181622;23;20025;-77
2023/12/21 04:07:47;;;;;;;2.22;1.42;;;9.60;99.90;;;;;;6183001;23;20393;-78
2023/12/21 04:10:33;;;;;;;1.65;1.05;;;9.70;99.90;;;;;;6182072;23;20013;-78
2023/12/21 04:13:19;;;;;;;1.98;1.20;;;9.70;99.90;;;;;;6183192;23;20016;-78
2023/12/21 04:16:08;;;;;;;1.60;1.10;;;9.70;99.90;;;;;;6183811;23;20005;-79
2023/12/21 04:18:54;;;;;;;1.45;1.10;;;9.70;99.90;;;;;;6182326;23;20013;-78
2023/12/21 04:21:41;;;;;;;1.27;1.13;;;9.70;99.90;;;;;;6181604;23;20451;-79
2023/12/21 04:24:27;;;;;;;1.92;1.20;;;9.80;99.90;;;;;;6181134;23;20526;-78
2023/12/21 04:27:13;;;;;;;1.45;0.98;;;9.80;99.90;;;;;;6180394;23;20015;-78
2023/12/21 04:29:59;;;;;;;5.07;1.60;;;9.80;99.90;;;;;;6181321;23;20013;-77
2023/12/21 04:32:45;;;;;;;1.33;1.23;;;9.80;99.90;;;;;;6181012;23;20009;-77
2023/12/21 04:35:31;;;;;;;1.55;1.30;;;9.80;99.90;;;;;;6182430;23;20017;-77
2023/12/21 04:38:17;;;;;;;1.50;1.23;;;9.80;99.90;;;;;;6181608;23;20581;-77
2023/12/21 04:41:03;;;;;;;1.23;1.10;;;9.80;99.90;;;;;;6181321;23;20016;-76
2023/12/21 04:43:49;;;;;;;1.33;1.05;;;9.90;99.90;;;;;;6182409;23;20041;-77
2023/12/21 04:46:34;;;;;;;2.13;1.33;;;9.90;99.90;;;;;;6182070;23;20001;-76
2023/12/21 04:49:22;;;;;;;2.15;1.38;;;9.90;99.90;;;;;;6182218;23;20075;-76
2023/12/21 04:52:08;;;;;;;3.33;1.10;;;9.90;99.90;;;;;;6181874;23;20463;-76
2023/12/21 04:54:54;;;;;;;2.28;1.20;;;9.90;99.90;;;;;;6181229;23;20087;-74
2023/12/21 04:57:40;;;;;;;1.65;1.25;;;9.90;99.90;;;;;;6186293;23;20033;-70
2023/12/21 05:00:29;;;;;;;1.65;1.13;;;10.00;99.90;;;;;;6210355;23;20013;-68
2023/12/21 05:03:14;;;;;;;2.38;1.30;;;9.90;99.90;;;;;;6199918;23;20071;-68
2023/12/21 05:06:04;;;;;;;2.50;1.48;;;10.00;99.90;;;;;;6183969;23;20052;-69
2023/12/21 05:08:50;;;;;;;1.30;1.20;;;10.00;99.90;;;;;;6180798;23;20009;-68
2023/12/21 05:11:36;;;;;;;1.35;1.17;;;10.00;99.90;;;;;;6182145;23;20009;-68
2023/12/21 05:14:21;;;;;;;1.83;1.20;;;10.00;99.90;;;;;;6182533;23;20013;-69
2023/12/21 05:17:07;;;;;;;2.92;1.48;;;10.00;99.90;;;;;;6159433;23;20017;-68
2023/12/21 05:19:53;;;;;;;1.63;1.30;;;10.10;99.90;;;;;;6158510;23;20013;-69
2023/12/21 05:22:41;;;;;;;1.20;1.10;;;10.10;99.90;;;;;;6181231;23;20539;-68
2023/12/21 05:25:27;;;;;;;2.75;1.27;;;10.10;99.90;;;;;;6179517;23;20045;-68
2023/12/21 05:28:13;;;;;;;1.80;1.10;;;10.10;99.90;;;;;;6180996;23;20017;-68
2023/12/21 05:31:00;;;;;;;2.40;1.13;;;10.10;99.90;;;;;;6180771;23;20009;-67
2023/12/21 05:33:46;;;;;;;1.02;1.00;;;10.10;99.90;;;;;;6180099;23;20017;-68
2023/12/21 05:36:32;;;;;;;1.13;0.98;;;10.20;99.90;;;;;;6182751;23;20083;-68
2023/12/21 05:39:19;;;;;;;1.33;1.20;;;10.20;99.90;;;;;;6180967;23;20016;-67
2023/12/21 05:42:05;;;;;;;1.75;1.40;;;10.20;99.90;;;;;;6179107;23;20088;-68
2023/12/21 05:44:51;;;;;;;1.08;0.90;;;10.20;99.90;;;;;;6181511;23;20016;-67
2023/12/21 05:47:37;;;;;;;2.30;1.40;;;10.20;99.90;;;;;;6182790;23;20090;-69
2023/12/21 05:50:23;;;;;;;2.47;1.30;;;10.30;99.90;;;;;;6182830;23;20350;-68
2023/12/21 05:53:08;;;;;;;2.65;1.10;;;10.30;99.90;;;;;;6181510;23;20055;-69
2023/12/21 05:55:54;;;;;;;1.02;0.82;;;10.30;99.90;;;;;;6182135;23;20044;-68
2023/12/21 05:58:40;;;;;;;1.45;1.10;;;10.30;99.90;;;;;;6182870;23;20052;-68
2023/12/21 06:01:26;;;;;;;1.25;1.00;;;10.30;99.90;;;;;;6180613;23;20522;-67
2023/12/21 06:04:12;;;;;;;1.23;1.00;;;10.30;99.90;;;;;;6182108;23;20096;-68
2023/12/21 06:06:58;;;;;;;1.35;0.93;;;10.40;99.90;;;;;;6181694;23;20027;-70
2023/12/21 06:09:44;;;;;;;1.02;0.93;;;10.40;99.90;;;;;;6182543;23;20332;-67
2023/12/21 06:12:30;;;;;;;1.40;0.90;;;10.40;99.90;;;;;;6182576;23;20324;-68
2023/12/21 06:15:17;;;;;;;1.60;0.98;;;10.40;99.90;;;;;;6160782;23;20028;-68
2023/12/21 06:18:03;;;;;;;1.17;0.95;;;10.40;99.90;;;;;;6180290;23;20021;-69
2023/12/21 06:20:49;;;;;;;1.63;1.10;;;10.40;99.90;;;;;;6179233;23;20502;-69
2023/12/21 06:23:35;;;;;;;3.17;0.98;;;10.50;99.90;;;;;;6180672;23;20048;-69
2023/12/21 06:26:21;;;;;;;1.45;0.93;;;10.40;99.90;;;;;;6181893;23;20386;-69
2023/12/21 06:29:07;;;;;;;1.98;1.25;;;10.50;99.90;;;;;;6181197;23;20316;-70
2023/12/21 06:31:53;;;;;;;1.05;0.80;;;10.50;99.90;;;;;;6179458;23;20600;-69
2023/12/21 06:34:39;;;;;;;1.15;1.00;;;10.50;99.90;;;;;;6181806;23;20044;-69
2023/12/21 06:37:25;;;;;;;2.38;1.10;;;10.50;99.90;;;;;;6180958;23;20021;-69
2023/12/21 06:40:11;;;;;;;1.38;1.00;;;10.50;99.90;;;;;;6182330;23;20068;-70
2023/12/21 06:42:57;;;;;;;1.73;1.00;;;10.50;99.90;;;;;;6181722;23;20009;-70
2023/12/21 06:45:43;;;;;;;2.90;1.20;;;10.50;99.90;;;;;;6181298;23;20446;-71
2023/12/21 06:48:29;;;;;;;1.35;1.10;;;10.50;99.90;;;;;;6180283;23;20016;-71
2023/12/21 06:51:15;;;;;;;1.27;1.13;;;10.50;99.90;;;;;;6180428;23;20016;-71
2023/12/21 06:54:01;;;;;;;1.38;1.25;;;10.50;99.90;;;;;;6158781;23;20005;-71
2023/12/21 06:56:47;;;;;;;1.80;1.10;;;10.50;99.90;;;;;;6180746;23;20048;-70
2023/12/21 06:59:33;;;;;;;1.27;1.08;;;10.50;99.90;;;;;;6179631;23;20008;-70
2023/12/21 07:02:20;;;;;;;2.95;1.75;;;10.50;99.90;;;;;;6180514;23;20411;-70
2023/12/21 07:05:06;;;;;;;1.38;1.20;;;10.50;99.90;;;;;;6179504;23;20055;-70
2023/12/21 07:07:54;;;;;;;1.88;1.23;;;10.50;99.90;;;;;;6178022;23;20443;-70
2023/12/21 07:10:39;;;;;;;2.17;1.40;;;10.50;99.90;;;;;;6157160;23;20515;-70
2023/12/21 07:13:25;;;;;;;1.80;1.20;;;10.50;99.90;;;;;;6182554;23;20095;-69
2023/12/21 07:16:12;;;;;;;1.00;0.90;;;10.40;99.90;;;;;;6181062;23;20001;-70
2023/12/21 07:18:58;;;;;;;1.73;1.00;;;10.40;99.90;;;;;;6180546;23;20095;-70
2023/12/21 07:21:44;;;;;;;1.85;1.00;;;10.40;99.90;;;;;;6184559;23;20453;-70
2023/12/21 07:24:30;;;;;;;0.93;0.80;;;10.30;99.90;;;;;;6182788;23;20009;-70
2023/12/21 07:27:15;;;;;;;2.40;0.88;;;10.30;99.90;;;;;;6182195;23;20020;-70
2023/12/21 07:30:02;;;;;;;2.40;1.20;;;10.30;99.90;;;;;;6183245;23;20009;-70
2023/12/21 07:32:48;;;;;;;1.27;1.08;;;10.20;99.90;;;;;;6182814;23;20049;-68
2023/12/21 07:35:34;;;;;;;1.55;1.00;;;10.20;99.90;;;;;;6182714;23;20009;-68
2023/12/21 07:38:20;;;;;;;1.10;0.88;;;10.20;99.90;;;;;;6160600;23;20063;-66
2023/12/21 07:41:07;;;;;;;0.80;0.80;;;10.20;99.90;;;;;;6184534;23;20016;-70
2023/12/21 07:43:54;;;;;;;1.05;0.93;;;10.20;99.90;;;;;;6182313;23;20029;-69
2023/12/21 07:46:40;;;;;;;2.38;1.00;;;10.20;99.90;;;;;;6180823;23;20023;-68
2023/12/21 07:49:26;;;;;;;1.27;1.00;;;10.10;99.90;;;;;;6183674;23;20012;-69
2023/12/21 07:52:11;;;;;;;1.48;1.08;;;10.10;99.90;;;;;;6161660;23;20212;-69
2023/12/21 07:54:57;;;;;;;0.73;0.70;;;10.10;99.90;;;;;;6184071;23;20013;-68
2023/12/21 07:57:43;;;;;;;0.77;0.77;;;10.10;99.90;;;;;;6183629;23;20099;-69
2023/12/21 08:00:29;;;;;;;1.30;0.90;;;10.10;99.90;;;;;;6182987;23;20009;-69
2023/12/21 08:03:15;;;;;;;2.83;1.35;;;10.10;99.90;;;;;;6182619;23;20079;-69
2023/12/21 08:06:02;;;;;;;2.83;1.48;;;10.10;99.90;;;;;;6184064;23;20013;-69
2023/12/21 08:08:49;;;;;;;2.55;1.40;;;10.10;99.90;;;;;;6182662;23;20020;-68
2023/12/21 08:11:35;;;;;;;2.75;1.50;;;10.10;99.90;;;;;;6180524;23;20009;-68
2023/12/21 08:14:21;;;;;;;5.97;1.75;;;10.10;99.90;;;;;;6183370;23;20386;-68
2023/12/21 08:17:09;;;;;;;2.42;1.17;;;10.10;99.90;;;;;;6183738;23;20020;-68
2023/12/21 08:19:56;;;;;;;0.98;0.95;;;10.10;99.90;;;;;;6181001;23;20271;-68
2023/12/21 08:22:42;;;;;;;1.90;1.23;;;10.10;99.90;;;;;;6198165;23;19993;-69
2023/12/21 08:25:28;;;;;;;1.60;1.20;;;10.10;99.90;;;;;;6182415;23;20009;-69
2023/12/21 08:28:14;;;;;;;1.88;1.10;;;10.10;99.90;;;;;;6163848;23;20096;-69
2023/12/21 08:31:00;;;;;;;1.23;0.90;;;10.10;99.90;;;;;;6185144;23;20016;-70
2023/12/21 08:33:46;;;;;;;0.90;0.90;;;10.20;99.90;;;;;;6183688;23;20040;-70
2023/12/21 08:36:32;;;;;;;1.25;0.90;;;10.10;99.90;;;;;;6180291;23;20021;-70
2023/12/21 08:39:18;;;;;;;0.90;0.80;;;10.20;99.90;;;;;;6182640;23;20009;-69
2023/12/21 08:42:06;;;;;;;0.80;0.80;;;10.20;99.90;;;;;;6182961;23;20013;-69
2023/12/21 08:44:52;;;;;;;0.70;0.68;;;10.20;99.90;;;;;;6180547;23;20009;-70
2023/12/21 08:47:40;;;;;;;2.55;0.98;;;10.20;99.90;;;;;;6180871;23;20342;-69
2023/12/21 08:50:29;;;;;;;0.88;0.70;;;10.20;99.90;;;;;;6181022;23;20410;-70
2023/12/21 08:53:15;;;;;;;0.98;0.90;;;10.20;99.90;;;;;;6183622;23;20009;-70
2023/12/21 08:56:03;;;;;;;1.50;1.02;;;10.20;99.90;;;;;;6182380;23;20067;-70
2023/12/21 08:58:50;;;;;;;1.95;1.10;;;10.20;99.90;;;;;;6178119;23;20104;-71
2023/12/21 09:01:36;;;;;;;1.17;0.90;;;10.20;99.90;;;;;;6180744;23;20006;-70
2023/12/21 09:04:22;;;;;;;1.35;1.00;;;10.20;99.90;;;;;;6181013;23;20025;-71
2023/12/21 09:07:08;;;;;;;1.15;0.88;;;10.20;99.90;;;;;;6182047;23;20746;-71
2023/12/21 09:09:54;;;;;;;1.08;0.80;;;10.20;99.90;;;;;;6182725;23;20447;-71
2023/12/21 09:12:40;;;;;;;1.70;0.90;;;10.20;99.90;;;;;;6179874;23;20451;-71
2023/12/21 09:15:28;;;;;;;0.63;0.63;;;10.20;99.90;;;;;;6181248;23;20009;-71
2023/12/21 09:18:14;;;;;;;2.17;1.33;;;10.20;99.90;;;;;;6179632;23;20021;-71
2023/12/21 09:21:01;;;;;;;1.42;1.08;;;10.30;99.90;;;;;;6183457;23;20013;-71
2023/12/21 09:23:47;;;;;;;0.60;0.60;;;10.20;99.90;;;;;;6180973;23;20012;-71
2023/12/21 09:26:33;;;;;;;0.88;0.80;;;10.30;99.90;;;;;;6183129;23;20514;-71
2023/12/21 09:29:19;;;;;;;1.35;0.98;;;10.20;99.90;;;;;;6181469;23;20265;-71
2023/12/21 09:32:06;;;;;;;1.55;1.05;;;10.20;99.90;;;;;;6183515;23;20053;-71
2023/12/21 09:34:52;;;;;;;1.50;0.90;;;10.20;99.90;;;;;;6179858;23;20012;-71
2023/12/21 09:37:37;;;;;;;2.75;1.15;;;10.20;99.90;;;;;;6181275;23;20359;-71
2023/12/21 09:40:25;;;;;;;0.85;0.70;;;10.30;99.90;;;;;;6180991;23;20017;-71
2023/12/21 09:43:13;;;;;;;1.25;0.75;;;10.30;99.90;;;;;;6179188;23;20446;-71
2023/12/21 09:46:01;;;;;;;0.88;0.77;;;10.30;99.90;;;;;;6181541;23;20381;-71
2023/12/21 09:48:47;;;;;;;2.72;1.33;;;10.30;99.90;;;;;;6180493;23;20016;-71
2023/12/21 09:51:36;;;;;;;1.30;0.88;;;10.30;99.90;;;;;;6157247;23;20343;-71
2023/12/21 09:54:22;;;;;;;0.98;0.80;;;10.30;99.90;;;;;;6181992;23;20015;-71
2023/12/21 09:57:09;;;;;;;4.32;2.03;;;10.40;99.90;;;;;;6180552;23;20031;-71
2023/12/21 09:59:58;;;;;;;3.20;1.88;;;10.40;99.90;;;;;;6180697;23;20016;-69
2023/12/21 10:02:43;;;;;;;4.00;1.52;;;10.40;99.90;;;;;;6178643;23;20009;-64
2023/12/21 10:05:30;;;;;;;3.28;0.90;;;10.40;99.90;;;;;;6180841;23;20017;-66
2023/12/21 10:08:18;;;;;;;1.38;0.88;;;10.40;99.90;;;;;;6178522;23;20557;-65
2023/12/21 10:11:06;;;;;;;0.90;0.70;;;10.30;99.90;;;;;;6178329;23;20013;-65
2023/12/21 10:13:56;;;;;;;0.95;0.82;;;10.40;99.90;;;;;;6180225;23;20427;-65
2023/12/21 10:16:42;;;;;;;0.93;0.68;;;10.40;99.90;;;;;;6181838;23;20021;-65
2023/12/21 10:19:27;;;;;;;0.40;0.40;;;10.40;99.90;;;;;;6181101;23;20044;-65
2023/12/21 10:22:13;;;;;;;1.70;0.80;;;10.40;99.90;;;;;;6179084;23;20009;-66
2023/12/21 10:24:59;;;;;;;0.85;0.73;;;10.40;99.90;;;;;;6181453;23;20005;-66
2023/12/21 10:27:56;;;;;;;1.75;0.60;;;10.40;99.90;;;;;;6182583;23;20335;-66
2023/12/21 10:30:42;;;;;;;0.55;0.52;;;10.40;99.90;;;;;;6180357;23;20063;-66
2023/12/21 10:33:28;;;;;;;0.55;0.50;;;10.40;99.90;;;;;;6180147;23;20009;-65
2023/12/21 10:36:15;;;;;;;0.40;0.40;;;10.40;99.90;;;;;;6179402;23;20044;-65
2023/12/21 10:39:01;;;;;;;0.88;0.68;;;10.40;99.90;;;;;;6180411;23;20048;-66
2023/12/21 10:41:47;;;;;;;0.80;0.55;;;10.40;99.90;;;;;;6181511;23;20016;-65
2023/12/21 10:44:33;;;;;;;1.08;0.70;;;10.50;99.90;;;;;;6182638;23;20028;-66
2023/12/21 10:47:21;;;;;;;1.42;0.90;;;10.50;99.90;;;;;;6180081;23;20447;-65
2023/12/21 10:50:07;;;;;;;0.93;0.70;;;10.50;99.90;;;;;;6180796;23;20009;-66
2023/12/21 10:52:55;;;;;;;1.05;0.90;;;10.50;99.90;;;;;;6180119;23;20037;-67
2023/12/21 10:55:43;;;;;;;1.30;0.88;;;10.50;99.90;;;;;;6181453;23;20017;-66
2023/12/21 10:58:30;;;;;;;1.13;0.80;;;10.50;99.90;;;;;;6180570;23;20017;-67
2023/12/21 11:01:18;;;;;;;1.05;0.70;;;10.50;99.90;;;;;;6179273;23;20013;-66
2023/12/21 11:04:05;;;;;;;1.95;0.60;;;10.50;99.90;;;;;;6181368;23;20033;-66
2023/12/21 11:06:52;;;;;;;0.80;0.70;;;10.50;99.90;;;;;;6179617;23;20009;-66
2023/12/21 11:09:40;;;;;;;2.05;0.60;;;10.60;99.90;;;;;;6181399;23;20139;-66
2023/12/21 11:12:26;;;;;;;1.08;0.70;;;10.60;99.90;;;;;;6178507;23;20075;-66
2023/12/21 11:15:14;;;;;;;2.55;0.90;;;10.60;99.90;;;;;;6179569;23;20013;-65
2023/12/21 11:18:24;;;;;;;0.57;0.57;;;10.60;99.90;;;;;;6159975;23;20199;-65
2023/12/21 11:21:12;;;;;;;1.35;0.85;;;10.60;99.90;;;;;;6157872;23;20013;-65
2023/12/21 11:23:57;;;;;;;0.63;0.50;;;10.60;99.90;;;;;;6179726;23;20342;-66
2023/12/21 11:26:44;;;;;;;1.58;0.90;;;10.60;99.90;;;;;;6181614;23;20005;-74
2023/12/21 11:29:30;;;;;;;1.20;0.90;;;10.60;99.90;;;;;;6187382;23;20017;-75
2023/12/21 11:32:26;;;;;;;2.17;1.10;;;10.60;99.90;;;;;;6180660;23;20093;-74
2023/12/21 11:35:22;;;;;;;1.90;1.00;;;10.60;99.90;;;;;;6180648;23;20320;-75
2023/12/21 11:38:11;;;;;;;1.30;0.98;;;10.60;99.90;;;;;;6181277;23;20017;-75
2023/12/21 11:40:58;;;;;;;4.70;1.10;;;10.70;99.90;;;;;;6199692;23;20013;-74
2023/12/21 11:44:02;;;;;;;1.65;1.13;;;10.70;99.90;;;;;;6207399;23;20021;-75
2023/12/21 11:46:48;;;;;;;1.48;1.08;;;10.70;99.90;;;;;;6207227;23;20012;-74
2023/12/21 11:49:34;;;;;;;1.00;0.80;;;10.70;99.90;;;;;;6207643;23;20001;-74
2023/12/21 11:52:24;;;;;;;1.33;0.80;;;10.70;99.90;;;;;;6187104;23;20021;-75
2023/12/21 11:55:10;;;;;;;1.38;0.82;;;10.80;99.90;;;;;;6179010;23;20087;-76
2023/12/21 11:58:16;;;;;;;1.75;0.80;;;10.80;99.90;;;;;;6180605;23;20294;-75
2023/12/21 12:01:02;;;;;;;0.98;0.88;;;10.80;99.90;;;;;;6179769;23;20435;-74
2023/12/21 12:03:48;;;;;;;1.77;0.88;;;10.80;99.90;;;;;;6179952;23;20028;-74
2023/12/21 12:06:35;;;;;;;1.52;0.80;;;10.80;99.90;;;;;;6182906;23;20092;-75
2023/12/21 12:09:21;;;;;;;2.70;1.10;;;10.80;99.90;;;;;;6181716;23;20020;-75
2023/12/21 12:12:07;;;;;;;1.13;0.65;;;10.80;99.90;;;;;;6207119;22;20490;-64
2023/12/21 12:14:53;;;;;;;0.73;0.60;;;10.80;99.90;;;;;;6207174;23;20071;-64
2023/12/21 12:17:43;;;;;;;4.03;0.80;;;10.80;99.90;;;;;;6212729;23;20436;-64
2023/12/21 12:20:29;;;;;;;2.15;1.05;;;10.80;99.90;;;;;;6240392;23;20035;-63
2023/12/21 12:23:15;;;;;;;4.85;0.98;;;10.80;99.90;;;;;;6243012;23;20019;-63
2023/12/21 12:26:02;;;;;;;0.85;0.75;;;10.90;99.90;;;;;;6241366;23;20004;-61
2023/12/21 12:28:50;;;;;;;1.88;0.90;;;10.90;99.90;;;;;;6238394;23;20000;-63
2023/12/21 12:31:37;;;;;;;1.15;1.02;;;10.90;99.90;;;;;;6241963;23;20073;-63
2023/12/21 12:34:23;;;;;;;0.80;0.65;;;10.90;99.90;;;;;;6241276;23;20012;-63
2023/12/21 12:37:09;;;;;;;0.75;0.60;;;10.90;99.90;;;;;;6241327;23;20106;-64
2023/12/21 12:39:56;;;;;;;1.17;0.70;;;10.90;99.90;;;;;;6228900;23;20091;-64
2023/12/21 12:42:42;;;;;;;1.77;0.60;;;10.90;99.90;;;;;;6240290;23;20183;-64
2023/12/21 12:45:31;;;;;;;0.98;0.73;;;10.90;99.90;;;;;;6240689;23;20004;-63
2023/12/21 12:48:18;;;;;;;1.40;0.75;;;10.90;99.90;;;;;;6241839;23;20070;-64
2023/12/21 12:51:04;;;;;;;1.25;0.75;;;10.90;99.90;;;;;;6240945;23;20008;-62
2023/12/21 12:53:51;;;;;;;2.70;1.08;;;10.90;99.90;;;;;;6241715;23;20504;-64
2023/12/21 12:56:49;;;;;;;1.63;0.82;;;10.90;99.90;;;;;;6241412;23;20348;-64
2023/12/21 12:59:35;;;;;;;2.08;1.02;;;10.90;99.90;;;;;;6242280;23;20044;-64
2023/12/21 13:02:21;;;;;;;2.83;1.23;;;11.00;99.90;;;;;;6243371;23;20012;-64
2023/12/21 13:05:07;;;;;;;1.73;0.88;;;10.90;99.90;;;;;;6242553;23;20008;-63
2023/12/21 13:07:54;;;;;;;1.63;1.13;;;11.00;99.90;;;;;;6240695;23;20008;-63
2023/12/21 13:10:40;;;;;;;1.60;1.00;;;11.00;99.90;;;;;;6241094;23;20455;-64
2023/12/21 13:13:26;;;;;;;2.22;1.08;;;11.00;99.90;;;;;;6210862;23;20017;-64
2023/12/21 13:16:13;;;;;;;1.95;1.05;;;11.00;99.90;;;;;;6188984;23;20075;-64
2023/12/21 13:18:59;;;;;;;1.20;0.88;;;10.90;99.90;;;;;;6209662;23;20028;-64
2023/12/21 13:21:46;;;;;;;2.90;0.93;;;11.00;99.90;;;;;;6209661;23;20015;-64
2023/12/21 13:24:31;;;;;;;1.92;1.08;;;11.00;99.90;;;;;;6208751;23;20020;-64
2023/12/21 13:27:18;;;;;;;2.60;0.85;;;11.00;99.90;;;;;;6209965;23;20012;-64
2023/12/21 13:30:04;;;;;;;1.73;1.15;;;11.10;99.90;;;;;;6209582;23;20340;-65
2023/12/21 13:32:52;;;;;;;2.05;1.20;;;11.00;99.90;;;;;;6211781;23;20013;-65
2023/12/21 13:35:37;;;;;;;1.77;1.10;;;11.00;99.90;;;;;;6210466;23;20380;-65
2023/12/21 13:38:23;;;;;;;3.90;1.30;;;11.00;99.90;;;;;;6210852;23;20024;-65
2023/12/21 13:41:09;;;;;;;2.35;1.17;;;11.00;99.90;;;;;;6211456;23;20087;-65
2023/12/21 13:43:55;;;;;;;3.88;0.90;;;11.00;99.90;;;;;;6211758;23;20008;-65
2023/12/21 13:46:41;;;;;;;2.65;1.27;;;11.00;99.90;;;;;;6212004;23;20039;-65
2023/12/21 13:49:27;;;;;;;2.00;1.02;;;11.00;99.90;;;;;;6208292;23;20016;-65
2023/12/21 13:52:13;;;;;;;2.10;1.17;;;11.00;99.90;;;;;;6208753;23;20015;-65
2023/12/21 13:54:59;;;;;;;4.22;0.80;;;11.00;99.90;;;;;;6210433;23;20437;-64
2023/12/21 13:57:45;;;;;;;1.55;0.85;;;11.00;99.90;;;;;;6210353;23;20060;-64
2023/12/21 14:00:31;;;;;;;1.45;0.73;;;11.00;99.90;;;;;;6210938;23;20064;-65
2023/12/21 14:03:18;;;;;;;1.00;0.90;;;11.10;99.90;;;;;;6210243;23;20048;-64
2023/12/21 14:06:04;;;;;;;1.33;0.93;;;11.00;99.90;;;;;;6211546;23;20009;-64
2023/12/21 14:08:50;;;;;;;0.95;0.70;;;11.00;99.90;;;;;;6211608;23;20049;-64
2023/12/21 14:11:36;;;;;;;1.20;0.90;;;11.10;99.90;;;;;;6210660;23;20031;-63
2023/12/21 14:14:22;;;;;;;2.38;0.70;;;11.10;99.90;;;;;;6210982;23;20091;-62
2023/12/21 14:17:08;;;;;;;1.20;0.77;;;11.10;99.90;;;;;;6210597;23;20027;-62
2023/12/21 14:19:54;;;;;;;0.90;0.50;;;11.10;99.90;;;;;;6211562;23;20424;-62
2023/12/21 14:22:40;;;;;;;1.92;0.75;;;11.10;99.90;;;;;;6210405;23;20012;-62
2023/12/21 14:25:26;;;;;;;2.08;0.95;;;11.10;99.90;;;;;;6210951;23;20538;-62
2023/12/21 14:28:15;;;;;;;0.40;0.40;;;11.10;99.90;;;;;;6211005;23;20562;-62
2023/12/21 14:31:01;;;;;;;1.25;1.05;;;11.10;99.90;;;;;;6210787;23;20008;-62